CheckWX is a tool to help pilots better visualize weather data.  It is not intended as a substitute for an official pre-flight weather briefing.

00:22:52 UTC

KEVM METAR
Eveleth-Virginia Municipal Airport
Eveleth, Minnesota, USA
Current

25 mins ago

KEVM 112358Z AUTO 31008KT 10SM CLR M15/M19 A3047 RMK AO2 T11461189 11124 21146
Observed
Nov-11 @ 23:58 UTC
Wind
  • 310° at 8 KTS
Visibility
10 SM
Flight Rules
VFR
Cloud Levels
  • Clear skies
Temperature
-15°C / 5°F
Dewpoint
-19°C / -2°F
Humidity
72%
Altimeter
30.47" Hg
Pressure
1031.82 hPa
Previous

47 mins ago

KEVM 112336Z AUTO 31008KT 10SM CLR M14/M19 A3047 RMK AO2 T11451191
Observed
Nov-11 @ 23:36 UTC
Wind
  • 310° at 8 KTS
Visibility
10 SM
Flight Rules
VFR
Cloud Levels
  • Clear skies
Temperature
-15°C / 5°F
Dewpoint
-19°C / -2°F
Humidity
72%
Altimeter
30.47" Hg
Pressure
1031.82 hPa
Previous

1 hour ago

KEVM 112316Z AUTO 31009KT 10SM CLR M14/M19 A3047 RMK AO2 T11441188
Observed
Nov-11 @ 23:16 UTC
Wind
  • 310° at 9 KTS
Visibility
10 SM
Flight Rules
VFR
Cloud Levels
  • Clear skies
Temperature
-14°C / 7°F
Dewpoint
-19°C / -2°F
Humidity
66%
Altimeter
30.47" Hg
Pressure
1031.82 hPa